Hlavní strana
METAR-TAF:

METAR-TAF

Letiště :

Letiště Split

Split, Chorvatsko

zeměpisná šířka: 43-32N, zeměpisná délka: 016-18E, výška: 19 m

Aktuální stav počasí

Zpráva byla vytvořena před 12 minutami, v 21:00 UTC
Severozápadní vítr 3 kt, proměnlivý mezi západním a severovýchodním
Teplota 24°C
Vlhkost vzduchu 57%
Tlak 1018 hPa
Viditelnost 10 km a více
Žádná oblačnost pod 1500 m, nevyskytují se cumulonimby.

METAR: LDSP 262100Z 32003KT 260V050 CAVOK 24/15 Q1018 NOSIG

Čas: 23:12 (21:12 UTC)

Předpověď počasí

Zpráva byla vytvořena před 3 hodinami a 47 minutami, v 17:25 UTC
Předpověď platná od 26 v 18 UTC do 27 v 18 UTC
Severoseverozápadní vítr 5 kt
Viditelnost 10 km a více
Žádná oblačnost pod 1500 m, nevyskytují se cumulonimby.
Změna
od 27 v 10 UTC do 27 v 12 UTC
Jihozápadní vítr 10 kt
Změna
od 27 v 16 UTC do 27 v 18 UTC
vítr z různých směrů 2 kt

TAF: LDSP 261725Z 2618/2718 34005KT CAVOK TX29/2711Z TN20/2703Z BECMG 2710/2712 23010KT BECMG 2716/2718 VRB02KT

Stav a předpovědi počasí z více než 4 000 letišť (zprávy METAR a TAF).

Červené a žluté tečky na mapě představují dostupné meteorologické stanice.

Když kurzor umístíte na tečku, zobrazí se název stanice.

Pak kliknutím zobrazíte stav a předpověď počasí.

Chcete-li změnit mapu, kliknutím na zelené tlačítko se znaménkem +mapu přiblížíte, kliknutím na zelené tlačítko se znaménkem – mapu oddálíte a kliknutím na zelené šipky přejdete na sousední mapy.


METAR-TAF: